createdAt,value
2024-01-16T00:00:38.298Z,-2.4
2024-01-16T00:15:38.189Z,-2.5
2024-01-16T00:30:39.913Z,-2.6
2024-01-16T00:45:39.866Z,-2.5
2024-01-16T01:00:40.957Z,-2.7
2024-01-16T01:15:42.703Z,-2.8
2024-01-16T01:30:42.571Z,-2.8
2024-01-16T01:45:44.046Z,-2.9
2024-01-16T02:00:44.089Z,-2.8
2024-01-16T02:15:44.888Z,-2.8
2024-01-16T02:30:45.455Z,-2.7
2024-01-16T02:45:46.750Z,-2.8
2024-01-16T03:00:47.138Z,-2.6
2024-01-16T03:15:47.255Z,-2.9
2024-01-16T03:30:49.359Z,-3.1
2024-01-16T03:45:48.996Z,-2.8
2024-01-16T04:00:50.099Z,-2.8
2024-01-16T04:15:51.336Z,-2.7
2024-01-16T04:30:50.810Z,-2.7
2024-01-16T04:45:51.626Z,-2.7
2024-01-16T05:00:52.556Z,-2.8
2024-01-16T05:15:52.843Z,-2.8
2024-01-16T05:30:55.599Z,-2.8
2024-01-16T05:45:53.622Z,-3
2024-01-16T06:00:54.622Z,-3.4
2024-01-16T06:15:56.268Z,-3.5
2024-01-16T06:30:57.024Z,-3.3
2024-01-16T06:45:57.401Z,-3.5
2024-01-16T06:50:16.843Z,-3.4
2024-01-16T07:05:07.427Z,-3.5
2024-01-16T07:20:08.337Z,-3.5
2024-01-16T07:35:09.296Z,-3.7
2024-01-16T07:50:09.423Z,-3.2
2024-01-16T08:05:09.841Z,-2.7
2024-01-16T08:20:19.648Z,-2.4
2024-01-16T08:35:19.240Z,-2.5
2024-01-16T08:50:21.558Z,-2.7
2024-01-16T09:05:19.390Z,-2
2024-01-16T09:20:20.531Z,-1.9
2024-01-16T09:35:20.326Z,-1.2
2024-01-16T09:50:21.500Z,-0.5
2024-01-16T10:05:19.546Z,-0.1
2024-01-16T10:20:22.008Z,0.7
2024-01-16T10:35:19.881Z,1.3
2024-01-16T10:50:23.064Z,3.9
2024-01-16T11:05:21.113Z,5.3
2024-01-16T11:21:09.938Z,3
2024-01-16T11:35:21.793Z,4.5
2024-01-16T11:50:24.767Z,7.1
2024-01-16T12:05:22.773Z,8.3
2024-01-16T12:20:24.345Z,11
2024-01-16T12:35:23.270Z,9.9
2024-01-16T12:50:25.790Z,10.9
2024-01-16T13:05:23.986Z,10.8
2024-01-16T13:20:25.979Z,9.8
2024-01-16T13:35:25.193Z,9.1
2024-01-16T13:50:26.760Z,10.8
2024-01-16T14:05:26.683Z,6.7
2024-01-16T14:20:29.522Z,6.8
2024-01-16T14:35:27.987Z,8.3
2024-01-16T14:50:29.146Z,10.9
2024-01-16T15:05:29.300Z,5.1
2024-01-16T15:20:29.910Z,2.8
2024-01-16T15:35:31.103Z,1.6
2024-01-16T15:50:31.057Z,0.4
2024-01-16T16:05:31.556Z,0.5
2024-01-16T16:20:32.798Z,-0.7
2024-01-16T16:35:32.951Z,-1.1
2024-01-16T16:50:33.666Z,-1.3
2024-01-16T17:05:35.168Z,-2
2024-01-16T17:20:35.109Z,-2.2
2024-01-16T17:35:36.147Z,-2.5
2024-01-16T17:50:36.686Z,-2.6
2024-01-16T18:05:37.743Z,-2.9
2024-01-16T18:20:40.896Z,-3
2024-01-16T18:35:38.665Z,-3.5
2024-01-16T18:50:39.449Z,-4.3
2024-01-16T19:05:40.350Z,-4.3
2024-01-16T19:20:40.930Z,-5.1
2024-01-16T19:35:41.632Z,-4.9
2024-01-16T19:50:42.280Z,-5.1
2024-01-16T20:05:42.675Z,-4.9
2024-01-16T20:20:42.993Z,-4.9
2024-01-16T20:35:44.252Z,-4.8
2024-01-16T20:50:44.619Z,-4.4
2024-01-16T21:05:46.360Z,-4.7
2024-01-16T21:20:46.165Z,-4.1
2024-01-16T21:35:46.663Z,-4.1
2024-01-16T21:50:47.993Z,-3.8
2024-01-16T22:05:48.535Z,-3.5
2024-01-16T22:20:49.267Z,-3.3
2024-01-16T22:35:49.470Z,-3.3
2024-01-16T22:50:51.401Z,-3.1
2024-01-16T23:00:43.994Z,-3.2
2024-01-16T23:15:40.999Z,-3
2024-01-16T23:30:43.403Z,-3
2024-01-16T23:45:43.324Z,-3
